createdAt,value
2022-10-19T00:00:51.840Z,14.39
2022-10-19T00:03:35.339Z,14.33
2022-10-19T00:06:17.517Z,14.28
2022-10-19T00:08:49.474Z,14.26
2022-10-19T00:11:22.104Z,14.26
2022-10-19T00:13:54.986Z,14.26
2022-10-19T00:16:29.233Z,14.25
2022-10-19T00:19:03.057Z,14.24
2022-10-19T00:21:35.265Z,14.25
2022-10-19T00:24:08.526Z,14.25
2022-10-19T00:26:40.661Z,14.25
2022-10-19T00:29:14.248Z,14.22
2022-10-19T00:31:46.511Z,14.17
2022-10-19T00:34:18.543Z,14.14
2022-10-19T00:36:50.436Z,14.12
2022-10-19T00:39:22.347Z,14.14
2022-10-19T00:41:52.747Z,14.15
2022-10-19T00:45:10.746Z,14.12
2022-10-19T00:47:43.854Z,14.09
2022-10-19T00:50:17.439Z,14.07
2022-10-19T00:52:49.553Z,14.03
2022-10-19T00:55:22.082Z,14.00
2022-10-19T00:57:53.903Z,13.98
2022-10-19T01:00:25.817Z,13.93
2022-10-19T01:02:58.943Z,13.89
2022-10-19T01:05:31.918Z,13.84
2022-10-19T01:08:04.409Z,13.81
2022-10-19T01:10:44.015Z,13.77
2022-10-19T01:13:32.338Z,13.70
2022-10-19T01:16:12.025Z,13.64
2022-10-19T01:18:51.833Z,13.60
2022-10-19T01:21:26.391Z,13.56
2022-10-19T01:24:44.458Z,13.52
2022-10-19T01:27:44.967Z,13.48
2022-10-19T01:30:20.745Z,13.47
2022-10-19T01:33:03.589Z,13.47
2022-10-19T01:35:44.670Z,13.47
2022-10-19T01:38:29.514Z,13.44
2022-10-19T01:41:11.518Z,13.42
2022-10-19T01:43:47.584Z,13.39
2022-10-19T01:46:24.057Z,13.35
2022-10-19T01:49:03.136Z,13.32
2022-10-19T01:51:39.671Z,13.28
2022-10-19T01:54:14.769Z,13.24
2022-10-19T01:56:49.604Z,13.20
2022-10-19T01:59:22.346Z,13.15
2022-10-19T02:01:55.733Z,13.11
2022-10-19T02:04:28.320Z,13.08
2022-10-19T02:07:02.863Z,13.04
2022-10-19T02:09:34.743Z,12.98
2022-10-19T02:12:09.632Z,12.95
2022-10-19T02:14:44.449Z,12.91
2022-10-19T02:17:19.378Z,12.87
2022-10-19T02:19:51.735Z,12.82
2022-10-19T02:22:23.749Z,12.77
2022-10-19T02:24:55.665Z,12.74
2022-10-19T02:27:27.937Z,12.68
2022-10-19T02:30:00.165Z,12.62
2022-10-19T02:32:32.447Z,12.56
2022-10-19T02:35:05.030Z,12.51
2022-10-19T02:37:37.200Z,12.47
2022-10-19T02:40:09.132Z,12.43
2022-10-19T02:42:46.458Z,12.38
2022-10-19T02:45:24.079Z,12.34
2022-10-19T02:47:59.882Z,12.31
2022-10-19T02:50:32.227Z,12.28
2022-10-19T02:53:04.435Z,12.25
2022-10-19T02:55:36.685Z,12.25
2022-10-19T02:58:09.114Z,12.22
2022-10-19T03:00:41.052Z,12.20
2022-10-19T03:03:11.854Z,12.19
2022-10-19T03:05:44.013Z,12.15
2022-10-19T03:08:14.322Z,12.12
2022-10-19T03:10:46.262Z,12.09
2022-10-19T03:13:18.242Z,12.07
2022-10-19T03:15:48.617Z,12.05
2022-10-19T03:18:20.555Z,12.02
2022-10-19T03:20:52.333Z,12.01
2022-10-19T03:23:24.345Z,12.00
2022-10-19T03:25:54.641Z,11.97
2022-10-19T03:28:26.911Z,11.92
2022-10-19T03:30:57.676Z,11.90
2022-10-19T03:33:29.541Z,11.87
2022-10-19T03:36:22.793Z,11.86
2022-10-19T03:38:56.032Z,11.86
2022-10-19T03:41:29.852Z,11.85
2022-10-19T03:44:02.383Z,11.82
2022-10-19T03:46:34.352Z,11.83
2022-10-19T03:49:04.911Z,11.84
2022-10-19T03:51:37.289Z,11.82
2022-10-19T03:54:16.553Z,11.84
2022-10-19T03:56:48.510Z,11.86
2022-10-19T03:59:18.941Z,11.89
2022-10-19T04:01:50.753Z,11.89
2022-10-19T04:04:22.946Z,11.88
2022-10-19T04:06:54.835Z,11.91
2022-10-19T04:09:26.803Z,11.94
2022-10-19T04:11:58.657Z,11.96
2022-10-19T04:14:33.190Z,11.98
2022-10-19T04:17:11.984Z,12.00
2022-10-19T04:19:43.839Z,12.04
2022-10-19T04:22:16.978Z,12.08
2022-10-19T04:24:48.943Z,12.10
2022-10-19T04:27:20.887Z,12.11
2022-10-19T04:29:53.075Z,12.13
2022-10-19T04:32:23.310Z,12.17
2022-10-19T04:34:55.438Z,12.18
2022-10-19T04:37:27.472Z,12.21
2022-10-19T04:39:59.829Z,12.23
2022-10-19T04:42:31.848Z,12.22
2022-10-19T04:45:03.890Z,12.23
2022-10-19T04:47:36.533Z,12.21
2022-10-19T04:50:09.853Z,12.20
2022-10-19T04:52:41.828Z,12.17
2022-10-19T04:55:13.698Z,12.14
2022-10-19T04:57:45.607Z,12.10
2022-10-19T05:00:18.592Z,12.08
2022-10-19T05:02:52.808Z,12.05
2022-10-19T05:05:26.604Z,12.04
2022-10-19T05:07:58.642Z,12.04
2022-10-19T05:10:29.081Z,12.02
2022-10-19T05:13:03.402Z,12.01
2022-10-19T05:15:35.357Z,12.00
2022-10-19T05:18:05.772Z,11.99
2022-10-19T05:20:39.030Z,11.97
2022-10-19T05:23:12.383Z,11.98
2022-10-19T05:25:42.770Z,12.00
2022-10-19T05:28:14.613Z,11.98
2022-10-19T05:31:30.850Z,11.98
2022-10-19T05:34:28.189Z,12.00
2022-10-19T05:37:00.071Z,12.02
2022-10-19T05:39:32.328Z,12.04
2022-10-19T05:42:04.363Z,12.05
2022-10-19T05:44:34.793Z,12.04
2022-10-19T05:47:06.871Z,12.02
2022-10-19T05:49:37.339Z,12.03
2022-10-19T05:52:09.381Z,12.00
2022-10-19T05:54:39.743Z,12.02
2022-10-19T05:57:11.602Z,12.00
2022-10-19T05:59:43.497Z,12.00
2022-10-19T06:02:16.686Z,12.03
2022-10-19T06:04:48.518Z,12.07
2022-10-19T06:07:20.540Z,12.11
2022-10-19T06:09:52.461Z,12.13
2022-10-19T06:12:25.066Z,12.15
2022-10-19T06:14:57.220Z,12.15
2022-10-19T06:17:31.013Z,12.18
2022-10-19T06:20:03.055Z,12.20
2022-10-19T06:22:35.145Z,12.20
2022-10-19T06:25:06.070Z,12.19
2022-10-19T06:27:38.348Z,12.15
2022-10-19T06:30:13.031Z,12.12
2022-10-19T06:32:45.179Z,12.09
2022-10-19T06:35:16.129Z,12.08
2022-10-19T06:37:48.270Z,12.06
2022-10-19T06:40:19.056Z,12.08
2022-10-19T06:42:51.071Z,12.11
2022-10-19T06:45:23.159Z,12.15
2022-10-19T06:47:53.662Z,12.25
2022-10-19T06:50:25.602Z,12.35
2022-10-19T06:52:56.021Z,12.44
2022-10-19T06:55:27.986Z,12.50
2022-10-19T06:58:01.804Z,12.56
2022-10-19T07:00:33.890Z,12.56
2022-10-19T07:03:06.126Z,12.53
2022-10-19T07:05:38.175Z,12.54
2022-10-19T07:08:10.417Z,12.61
2022-10-19T07:10:42.506Z,12.76
2022-10-19T07:13:14.518Z,12.77
2022-10-19T07:15:46.692Z,12.76
2022-10-19T07:18:18.802Z,12.73
2022-10-19T07:20:58.687Z,12.67
2022-10-19T07:23:32.694Z,12.60
2022-10-19T07:26:09.733Z,12.52
2022-10-19T07:28:43.434Z,12.45
2022-10-19T07:31:17.884Z,12.40
2022-10-19T07:33:53.212Z,12.37
2022-10-19T07:36:26.232Z,12.37
2022-10-19T07:38:58.258Z,12.32
2022-10-19T07:41:28.659Z,12.29
2022-10-19T07:44:00.570Z,12.27
2022-10-19T07:46:34.461Z,12.26
2022-10-19T07:49:09.740Z,12.29
2022-10-19T07:51:41.982Z,12.32
2022-10-19T07:54:14.310Z,12.37
2022-10-19T07:56:46.516Z,12.41
2022-10-19T07:59:17.408Z,12.44
2022-10-19T08:01:50.290Z,12.48
2022-10-19T08:07:14.770Z,12.52
2022-10-19T08:09:54.482Z,12.54
2022-10-19T08:12:26.625Z,12.59
2022-10-19T08:14:56.949Z,12.64
2022-10-19T08:17:28.800Z,12.67
2022-10-19T08:20:00.938Z,12.73
2022-10-19T08:22:33.203Z,12.77
2022-10-19T08:25:05.739Z,12.82
2022-10-19T08:27:37.734Z,12.90
2022-10-19T08:30:08.826Z,13.03
2022-10-19T08:32:40.717Z,13.08
2022-10-19T08:35:12.696Z,13.12
2022-10-19T08:37:45.534Z,13.16
2022-10-19T08:40:23.936Z,13.18
2022-10-19T08:43:00.879Z,13.28
2022-10-19T08:48:28.629Z,13.50
2022-10-19T08:51:01.949Z,13.65
2022-10-19T08:53:43.372Z,13.76
2022-10-19T08:56:49.475Z,13.85
2022-10-19T08:59:27.205Z,13.88
2022-10-19T09:02:03.672Z,13.89
2022-10-19T09:04:41.859Z,13.91
2022-10-19T09:07:26.468Z,14.07
2022-10-19T09:10:02.495Z,14.29
2022-10-19T09:12:44.106Z,14.42
2022-10-19T09:15:20.303Z,14.45
2022-10-19T09:17:52.246Z,14.42
2022-10-19T09:20:23.677Z,14.40
2022-10-19T09:23:04.323Z,14.39
2022-10-19T09:25:39.433Z,14.40
2022-10-19T09:28:31.552Z,14.39
2022-10-19T09:31:13.306Z,14.38
2022-10-19T09:33:52.642Z,14.55
2022-10-19T09:36:49.370Z,14.82
2022-10-19T09:39:20.899Z,15.12
2022-10-19T09:41:57.829Z,15.24
2022-10-19T09:44:31.392Z,15.33
2022-10-19T09:47:18.161Z,15.41
2022-10-19T09:49:51.345Z,15.49
2022-10-19T09:52:37.097Z,15.59
2022-10-19T09:55:21.498Z,15.60
2022-10-19T09:58:03.003Z,15.68
2022-10-19T10:00:39.062Z,15.66
2022-10-19T10:03:22.580Z,15.49
2022-10-19T10:05:56.469Z,15.27
2022-10-19T10:08:32.267Z,15.04
2022-10-19T10:11:12.671Z,14.81
2022-10-19T10:13:50.324Z,14.61
2022-10-19T10:16:24.785Z,14.44
2022-10-19T10:19:00.822Z,14.28
2022-10-19T10:21:36.473Z,14.19
2022-10-19T10:24:17.599Z,14.17
2022-10-19T10:26:51.087Z,14.15
2022-10-19T10:29:25.557Z,14.19
2022-10-19T10:32:01.255Z,14.30
2022-10-19T10:34:50.173Z,14.37
2022-10-19T10:37:27.123Z,14.41
2022-10-19T10:40:03.678Z,14.47
2022-10-19T10:42:42.801Z,14.60
2022-10-19T10:45:20.729Z,14.71
2022-10-19T10:47:54.137Z,14.67
2022-10-19T10:50:28.901Z,14.59
2022-10-19T10:53:03.269Z,14.49
2022-10-19T10:55:36.449Z,14.43
2022-10-19T10:58:16.418Z,14.35
2022-10-19T11:00:53.378Z,14.28
2022-10-19T11:03:30.483Z,14.16
2022-10-19T11:06:03.699Z,14.08
2022-10-19T11:08:44.186Z,13.98
2022-10-19T11:11:19.254Z,13.93
2022-10-19T11:13:59.141Z,13.94
2022-10-19T11:16:34.830Z,13.96
2022-10-19T11:21:56.975Z,14.04
2022-10-19T11:24:46.394Z,14.08
2022-10-19T11:27:33.487Z,14.08
2022-10-19T11:30:12.775Z,14.06
2022-10-19T11:32:58.779Z,14.03
2022-10-19T11:35:47.230Z,14.02
2022-10-19T11:38:34.121Z,14.01
2022-10-19T11:41:18.878Z,13.98
2022-10-19T11:44:04.092Z,13.95
2022-10-19T11:46:43.447Z,13.93
2022-10-19T11:49:28.809Z,13.94
2022-10-19T11:52:10.509Z,13.94
2022-10-19T11:54:54.704Z,13.97
2022-10-19T11:57:32.311Z,14.04
2022-10-19T12:00:15.213Z,14.15
2022-10-19T12:03:24.183Z,14.20
2022-10-19T12:06:08.014Z,14.26
2022-10-19T12:08:55.393Z,14.34
2022-10-19T12:11:36.687Z,14.30
2022-10-19T12:14:14.739Z,14.20
2022-10-19T12:16:51.458Z,14.08
2022-10-19T12:19:27.350Z,14.01
2022-10-19T12:22:03.695Z,13.98
2022-10-19T12:24:36.559Z,13.95
2022-10-19T12:27:12.086Z,13.89
2022-10-19T12:29:49.154Z,13.83
2022-10-19T12:32:24.741Z,13.82
2022-10-19T12:35:03.442Z,13.82
2022-10-19T12:37:41.000Z,13.79
2022-10-19T12:40:23.833Z,13.79
2022-10-19T12:43:03.296Z,13.81
2022-10-19T12:45:38.402Z,13.83
2022-10-19T12:48:22.077Z,13.81
2022-10-19T12:51:09.028Z,13.78
2022-10-19T12:53:44.393Z,13.76
2022-10-19T12:56:21.935Z,13.70
2022-10-19T12:58:57.731Z,13.64
2022-10-19T13:01:44.043Z,13.56
2022-10-19T13:04:20.562Z,13.47
2022-10-19T13:07:01.550Z,13.42
2022-10-19T13:09:36.544Z,13.35
2022-10-19T13:12:44.865Z,13.32
2022-10-19T13:15:52.430Z,13.32
2022-10-19T13:19:07.679Z,13.35
2022-10-19T13:21:50.887Z,13.42
2022-10-19T13:24:35.733Z,13.48
2022-10-19T13:27:28.387Z,13.51
2022-10-19T13:30:00.441Z,13.49
2022-10-19T13:32:37.438Z,13.48
2022-10-19T13:35:30.520Z,13.43
2022-10-19T13:38:26.450Z,13.40
2022-10-19T13:41:09.832Z,13.37
2022-10-19T13:43:52.262Z,13.35
2022-10-19T13:46:35.581Z,13.34
2022-10-19T13:49:40.373Z,13.33
2022-10-19T13:52:40.242Z,13.28
2022-10-19T13:55:47.471Z,13.20
2022-10-19T13:58:41.971Z,13.17
2022-10-19T14:01:28.204Z,13.16
2022-10-19T14:04:19.071Z,13.12
2022-10-19T14:06:55.552Z,13.11
2022-10-19T14:09:57.174Z,13.06
2022-10-19T14:12:32.221Z,13.03
2022-10-19T14:15:20.853Z,13.03
2022-10-19T14:17:52.997Z,13.04
2022-10-19T14:20:28.500Z,13.03
2022-10-19T14:23:18.703Z,12.98
2022-10-19T14:26:00.661Z,12.95
2022-10-19T14:28:36.438Z,12.92
2022-10-19T14:31:11.991Z,12.89
2022-10-19T14:33:51.371Z,12.86
2022-10-19T14:36:26.653Z,12.85
2022-10-19T14:39:02.527Z,12.84
2022-10-19T14:41:37.862Z,12.79
2022-10-19T14:44:31.588Z,12.75
2022-10-19T14:47:07.926Z,12.72
2022-10-19T14:49:39.886Z,12.70
2022-10-19T14:52:18.816Z,12.65
2022-10-19T14:54:53.547Z,12.59
2022-10-19T14:57:33.265Z,12.53
2022-10-19T15:00:10.659Z,12.43
2022-10-19T15:02:47.855Z,12.33
2022-10-19T15:05:22.951Z,12.23
2022-10-19T15:07:56.094Z,12.14
2022-10-19T15:10:37.084Z,12.07
2022-10-19T15:13:17.809Z,12.00
2022-10-19T15:15:54.133Z,11.95
2022-10-19T15:18:48.317Z,11.93
2022-10-19T15:21:23.171Z,11.93
2022-10-19T15:23:55.442Z,11.94
2022-10-19T15:26:32.486Z,11.94
2022-10-19T15:29:20.076Z,11.94
2022-10-19T15:31:56.346Z,11.94
2022-10-19T15:34:31.269Z,11.95
2022-10-19T15:37:03.866Z,11.98
2022-10-19T15:39:42.084Z,11.98
2022-10-19T15:42:39.353Z,11.97
2022-10-19T15:45:32.189Z,11.96
2022-10-19T15:48:29.190Z,11.94
2022-10-19T15:51:01.162Z,11.92
2022-10-19T15:53:32.937Z,11.91
2022-10-19T15:56:04.800Z,11.90
2022-10-19T15:58:36.743Z,11.84
2022-10-19T16:01:17.407Z,11.80
2022-10-19T16:03:49.869Z,11.74
2022-10-19T16:06:23.877Z,11.68
2022-10-19T16:08:56.404Z,11.64
2022-10-19T16:11:34.711Z,11.60
2022-10-19T16:14:06.552Z,11.55
2022-10-19T16:16:38.906Z,11.50
2022-10-19T16:19:10.925Z,11.45
2022-10-19T16:21:46.695Z,11.39
2022-10-19T16:24:22.095Z,11.33
2022-10-19T16:26:56.638Z,11.27
2022-10-19T16:29:29.160Z,11.20
2022-10-19T16:32:01.232Z,11.17
2022-10-19T16:34:31.843Z,11.15
2022-10-19T16:37:06.760Z,11.13
2022-10-19T16:39:39.489Z,11.10
2022-10-19T16:42:11.858Z,11.07
2022-10-19T16:44:42.126Z,11.04
2022-10-19T16:47:14.011Z,11.00
2022-10-19T16:49:45.845Z,10.98
2022-10-19T16:52:18.091Z,10.99
2022-10-19T16:54:50.078Z,10.99
2022-10-19T16:57:20.773Z,11.02
2022-10-19T17:00:04.837Z,11.02
2022-10-19T17:02:41.790Z,11.05
2022-10-19T17:05:16.475Z,11.08
2022-10-19T17:07:46.971Z,11.10
2022-10-19T17:10:19.718Z,11.09
2022-10-19T17:12:51.903Z,11.10
2022-10-19T17:15:42.154Z,11.11
2022-10-19T17:18:14.205Z,11.11
2022-10-19T17:20:46.134Z,11.12
2022-10-19T17:23:16.708Z,11.12
2022-10-19T17:25:51.570Z,11.11
2022-10-19T17:28:26.837Z,11.10
2022-10-19T17:31:03.382Z,11.12
2022-10-19T17:33:35.841Z,11.09
2022-10-19T17:36:10.657Z,11.08
2022-10-19T17:38:43.223Z,11.08
2022-10-19T17:41:17.200Z,11.09
2022-10-19T17:43:51.735Z,11.11
2022-10-19T17:46:25.283Z,11.12
2022-10-19T17:48:58.035Z,11.12
2022-10-19T17:51:32.397Z,11.15
2022-10-19T17:54:07.720Z,11.16
2022-10-19T17:56:44.935Z,11.15
2022-10-19T17:59:22.590Z,11.13
2022-10-19T18:02:03.362Z,11.12
2022-10-19T18:07:09.004Z,11.05
2022-10-19T18:09:41.601Z,11.03
2022-10-19T18:12:14.163Z,11.01
2022-10-19T18:14:46.860Z,10.99
2022-10-19T18:17:21.749Z,11.01
2022-10-19T18:19:57.104Z,11.05
2022-10-19T18:22:29.887Z,11.08
2022-10-19T18:25:02.215Z,11.09
2022-10-19T18:27:35.554Z,11.07
2022-10-19T18:30:10.696Z,11.06
2022-10-19T18:32:42.885Z,10.95
2022-10-19T18:35:15.643Z,10.88
2022-10-19T18:37:48.475Z,10.84
2022-10-19T18:40:22.091Z,10.84
2022-10-19T18:42:55.280Z,10.85
2022-10-19T18:45:29.752Z,10.87
2022-10-19T18:48:02.498Z,10.87
2022-10-19T18:50:35.045Z,10.86
2022-10-19T18:53:07.232Z,10.85
2022-10-19T18:55:39.298Z,10.84
2022-10-19T18:58:13.368Z,10.83
2022-10-19T19:00:46.366Z,10.83
2022-10-19T19:03:20.583Z,10.84
2022-10-19T19:05:53.110Z,10.85
2022-10-19T19:08:25.995Z,10.85
2022-10-19T19:10:58.625Z,10.83
2022-10-19T19:13:30.818Z,10.80
2022-10-19T19:16:07.862Z,10.74
2022-10-19T19:18:40.051Z,10.68
2022-10-19T19:21:18.904Z,10.61
2022-10-19T19:23:51.465Z,10.57
2022-10-19T19:26:26.406Z,10.48
2022-10-19T19:28:59.149Z,10.38
2022-10-19T19:31:31.887Z,10.30
2022-10-19T19:34:15.324Z,10.21
2022-10-19T19:36:49.565Z,10.13
2022-10-19T19:39:23.020Z,10.12
2022-10-19T19:41:54.907Z,10.10
2022-10-19T19:44:30.571Z,10.09
2022-10-19T19:47:04.773Z,10.04
2022-10-19T19:49:37.392Z,10.00
2022-10-19T19:52:09.590Z,9.96
2022-10-19T19:54:42.740Z,9.86
2022-10-19T19:57:18.146Z,9.78
2022-10-19T19:59:53.758Z,9.74
2022-10-19T20:02:25.627Z,9.71
2022-10-19T20:04:57.681Z,9.71
2022-10-19T20:07:28.279Z,9.74
2022-10-19T20:10:02.338Z,9.73
2022-10-19T20:12:35.666Z,9.70
2022-10-19T20:15:08.854Z,9.58
2022-10-19T20:17:40.963Z,9.46
2022-10-19T20:20:15.498Z,9.34
2022-10-19T20:22:50.028Z,9.23
2022-10-19T20:25:22.042Z,9.14
2022-10-19T20:27:52.513Z,9.07
2022-10-19T20:30:24.581Z,9.01
2022-10-19T20:32:55.944Z,8.96
2022-10-19T20:35:28.080Z,8.88
2022-10-19T20:38:00.203Z,8.82
2022-10-19T20:40:32.225Z,8.78
2022-10-19T20:43:02.719Z,8.76
2022-10-19T20:45:37.440Z,8.74
2022-10-19T20:48:09.456Z,8.77
2022-10-19T20:50:41.312Z,8.81
2022-10-19T20:53:13.275Z,8.82
2022-10-19T20:55:45.204Z,8.80
2022-10-19T20:58:17.157Z,8.75
2022-10-19T21:00:49.322Z,8.68
2022-10-19T21:03:21.356Z,8.62
2022-10-19T21:05:53.547Z,8.54
2022-10-19T21:08:23.798Z,8.48
2022-10-19T21:10:55.820Z,8.42
2022-10-19T21:13:27.815Z,8.38
2022-10-19T21:15:59.984Z,8.32
2022-10-19T21:18:31.849Z,8.25
2022-10-19T21:21:10.475Z,8.19
2022-10-19T21:23:43.165Z,8.11
2022-10-19T21:26:15.558Z,8.04
2022-10-19T21:28:50.728Z,8.01
2022-10-19T21:31:24.356Z,7.96
2022-10-19T21:33:56.606Z,7.93
2022-10-19T21:36:27.012Z,7.92
2022-10-19T21:38:59.081Z,7.87
2022-10-19T21:41:30.915Z,7.84
2022-10-19T21:44:03.462Z,7.79
2022-10-19T21:46:35.591Z,7.76
2022-10-19T21:49:07.551Z,7.73
2022-10-19T21:51:43.605Z,7.76
2022-10-19T21:54:17.744Z,7.78
2022-10-19T21:56:50.165Z,7.78
2022-10-19T21:59:22.060Z,7.79
2022-10-19T22:01:55.312Z,7.78
2022-10-19T22:04:27.231Z,7.77
2022-10-19T22:06:59.595Z,7.76
2022-10-19T22:09:31.470Z,7.70
2022-10-19T22:12:03.532Z,7.63
2022-10-19T22:14:34.109Z,7.54
2022-10-19T22:17:06.199Z,7.48
2022-10-19T22:19:38.176Z,7.44
2022-10-19T22:22:10.085Z,7.41
2022-10-19T22:24:42.150Z,7.42
2022-10-19T22:27:14.025Z,7.43
2022-10-19T22:29:45.989Z,7.44
2022-10-19T22:32:18.044Z,7.41
2022-10-19T22:34:50.380Z,7.34
2022-10-19T22:37:22.264Z,7.27
2022-10-19T22:39:54.356Z,7.23
2022-10-19T22:42:24.991Z,7.18
2022-10-19T22:44:57.076Z,7.13
2022-10-19T22:47:29.059Z,7.10
2022-10-19T22:50:01.431Z,7.05
2022-10-19T22:52:33.743Z,7.02
2022-10-19T22:55:06.238Z,6.97
2022-10-19T22:57:38.242Z,6.89
2022-10-19T23:00:12.753Z,6.83
2022-10-19T23:02:44.884Z,6.80
2022-10-19T23:05:17.706Z,6.78
2022-10-19T23:07:49.757Z,6.77
2022-10-19T23:10:21.688Z,6.77
2022-10-19T23:12:54.559Z,6.77
2022-10-19T23:15:26.731Z,6.80
2022-10-19T23:18:00.462Z,6.83
2022-10-19T23:20:32.657Z,6.84
2022-10-19T23:23:02.979Z,6.87
2022-10-19T23:25:34.995Z,6.86
2022-10-19T23:28:07.300Z,6.86
2022-10-19T23:30:41.272Z,6.86
2022-10-19T23:33:13.112Z,6.87
2022-10-19T23:35:45.091Z,6.90
2022-10-19T23:38:17.145Z,6.91
2022-10-19T23:40:47.532Z,6.90
2022-10-19T23:43:19.458Z,6.88
2022-10-19T23:45:51.417Z,6.84
2022-10-19T23:48:23.483Z,6.81
2022-10-19T23:51:00.559Z,6.75
2022-10-19T23:53:38.439Z,6.72
2022-10-19T23:56:16.123Z,6.71
2022-10-19T23:58:48.498Z,6.67
